createdAt,value
2023-03-11T00:01:49.471Z,-5.50
2023-03-11T00:04:17.613Z,-5.60
2023-03-11T00:06:45.804Z,-5.60
2023-03-11T00:09:13.973Z,-5.60
2023-03-11T00:11:42.125Z,-5.70
2023-03-11T00:14:10.423Z,-5.70
2023-03-11T00:16:38.662Z,-5.90
2023-03-11T00:19:09.506Z,-5.90
2023-03-11T00:21:37.896Z,-6.00
2023-03-11T00:24:06.553Z,-6.00
2023-03-11T00:26:34.747Z,-5.90
2023-03-11T00:29:02.877Z,-6.00
2023-03-11T00:31:31.187Z,-6.00
2023-03-11T00:33:59.359Z,-6.00
2023-03-11T00:36:31.707Z,-6.10
2023-03-11T00:38:59.933Z,-6.20
2023-03-11T00:41:29.722Z,-6.20
2023-03-11T00:43:58.082Z,-6.30
2023-03-11T00:46:26.481Z,-6.30
2023-03-11T00:48:54.714Z,-6.30
2023-03-11T00:51:23.143Z,-6.30
2023-03-11T00:53:55.108Z,-6.30
2023-03-11T00:56:23.477Z,-6.40
2023-03-11T00:58:51.583Z,-6.40
2023-03-11T01:01:21.456Z,-6.40
2023-03-11T01:03:49.762Z,-6.50
2023-03-11T01:06:17.935Z,-6.50
2023-03-11T01:08:49.144Z,-6.50
2023-03-11T01:11:18.671Z,-6.50
2023-03-11T01:13:46.899Z,-6.50
2023-03-11T01:16:15.372Z,-6.60
2023-03-11T01:18:43.659Z,-6.70
2023-03-11T01:21:11.833Z,-6.80
2023-03-11T01:23:40.384Z,-6.80
2023-03-11T01:26:08.743Z,-6.80
2023-03-11T01:28:38.462Z,-6.80
2023-03-11T01:31:06.700Z,-6.80
2023-03-11T01:33:34.939Z,-6.70
2023-03-11T01:36:03.271Z,-6.70
2023-03-11T01:38:31.475Z,-6.70
2023-03-11T01:40:59.607Z,-6.90
2023-03-11T01:43:49.768Z,-6.90
2023-03-11T01:46:19.885Z,-7.00
2023-03-11T01:48:49.212Z,-7.00
2023-03-11T01:51:18.679Z,-6.90
2023-03-11T01:53:47.014Z,-7.00
2023-03-11T01:56:15.546Z,-6.90
2023-03-11T01:58:46.549Z,-7.00
2023-03-11T02:01:15.002Z,-7.10
2023-03-11T02:03:43.823Z,-6.90
2023-03-11T02:06:13.571Z,-6.90
2023-03-11T02:08:42.795Z,-6.90
2023-03-11T02:11:13.485Z,-6.90
2023-03-11T02:13:43.262Z,-6.90
2023-03-11T02:16:14.292Z,-7.10
2023-03-11T02:18:42.975Z,-7.00
2023-03-11T02:21:17.559Z,-7.00
2023-03-11T02:23:49.340Z,-7.00
2023-03-11T02:26:21.151Z,-7.10
2023-03-11T02:28:51.438Z,-7.20
2023-03-11T02:31:19.585Z,-7.20
2023-03-11T02:33:48.443Z,-7.10
2023-03-11T02:36:32.998Z,-7.10
2023-03-11T02:39:01.244Z,-7.10
2023-03-11T02:41:29.793Z,-7.10
2023-03-11T02:44:00.160Z,-7.10
2023-03-11T02:46:28.502Z,-7.10
2023-03-11T02:48:57.438Z,-7.20
2023-03-11T02:51:25.731Z,-7.10
2023-03-11T02:53:56.115Z,-7.20
2023-03-11T02:56:24.332Z,-7.20
2023-03-11T02:58:52.684Z,-7.10
2023-03-11T03:01:22.422Z,-7.20
2023-03-11T03:03:50.539Z,-7.10
2023-03-11T03:06:18.716Z,-7.20
2023-03-11T03:08:46.996Z,-7.20
2023-03-11T03:11:16.310Z,-7.10
2023-03-11T03:13:45.699Z,-7.10
2023-03-11T03:16:14.110Z,-7.10
2023-03-11T03:18:43.789Z,-7.20
2023-03-11T03:21:12.008Z,-7.20
2023-03-11T03:23:40.316Z,-7.30
2023-03-11T03:26:08.464Z,-7.30
2023-03-11T03:28:36.760Z,-7.30
2023-03-11T03:31:05.517Z,-7.30
2023-03-11T03:33:36.309Z,-7.30
2023-03-11T03:36:08.866Z,-7.40
2023-03-11T03:38:37.298Z,-7.40
2023-03-11T03:41:05.848Z,-7.40
2023-03-11T03:43:34.050Z,-7.30
2023-03-11T03:46:03.138Z,-7.40
2023-03-11T03:48:31.756Z,-7.40
2023-03-11T03:51:03.825Z,-7.40
2023-03-11T03:53:34.577Z,-7.40
2023-03-11T03:56:04.045Z,-7.30
2023-03-11T03:58:32.606Z,-7.40
2023-03-11T04:01:01.276Z,-7.40
2023-03-11T04:03:29.995Z,-7.40
2023-03-11T04:06:07.020Z,-7.40
2023-03-11T04:08:36.913Z,-7.40
2023-03-11T04:11:05.480Z,-7.50
2023-03-11T04:13:33.686Z,-7.50
2023-03-11T04:16:04.182Z,-7.60
2023-03-11T04:18:32.709Z,-7.50
2023-03-11T04:21:00.848Z,-7.50
2023-03-11T04:23:30.119Z,-7.50
2023-03-11T04:25:59.800Z,-7.50
2023-03-11T04:28:27.903Z,-7.50
2023-03-11T04:30:56.289Z,-7.60
2023-03-11T04:33:25.043Z,-7.50
2023-03-11T04:35:53.379Z,-7.50
2023-03-11T04:38:21.573Z,-7.50
2023-03-11T04:40:49.701Z,-7.50
2023-03-11T04:43:19.382Z,-7.60
2023-03-11T04:45:51.542Z,-7.60
2023-03-11T04:48:19.839Z,-7.60
2023-03-11T04:50:47.966Z,-7.40
2023-03-11T04:53:19.019Z,-7.50
2023-03-11T04:55:47.970Z,-7.60
2023-03-11T04:58:16.215Z,-7.50
2023-03-11T05:00:45.997Z,-7.50
2023-03-11T05:03:14.457Z,-7.50
2023-03-11T05:05:42.689Z,-7.60
2023-03-11T05:08:10.805Z,-7.60
2023-03-11T05:10:40.737Z,-7.70
2023-03-11T05:13:09.239Z,-7.70
2023-03-11T05:15:37.751Z,-7.70
2023-03-11T05:18:10.089Z,-7.70
2023-03-11T05:20:38.717Z,-7.60
2023-03-11T05:23:07.283Z,-7.60
2023-03-11T05:25:35.868Z,-7.60
2023-03-11T05:28:04.049Z,-7.50
2023-03-11T05:30:32.337Z,-7.50
2023-03-11T05:33:00.724Z,-7.50
2023-03-11T05:35:30.475Z,-7.50
2023-03-11T05:37:58.593Z,-7.60
2023-03-11T05:40:26.792Z,-7.50
2023-03-11T05:42:55.113Z,-7.50
2023-03-11T05:45:23.282Z,-7.50
2023-03-11T05:47:53.053Z,-7.40
2023-03-11T05:50:21.451Z,-7.40
2023-03-11T05:52:51.071Z,-7.30
2023-03-11T05:55:19.244Z,-7.20
2023-03-11T05:57:47.467Z,-7.20
2023-03-11T06:00:16.145Z,-7.20
2023-03-11T06:02:44.532Z,-7.20
2023-03-11T06:05:13.889Z,-7.10
2023-03-11T06:07:42.232Z,-7.00
2023-03-11T06:10:12.931Z,-6.90
2023-03-11T06:12:41.224Z,-6.80
2023-03-11T06:15:10.015Z,-6.80
2023-03-11T06:17:38.251Z,-6.70
2023-03-11T06:20:07.491Z,-6.60
2023-03-11T06:22:36.881Z,-6.20
2023-03-11T06:25:07.117Z,-6.00
2023-03-11T06:27:39.274Z,-5.70
2023-03-11T06:30:07.996Z,-5.60
2023-03-11T06:32:37.379Z,-5.60
2023-03-11T06:35:05.870Z,-5.40
2023-03-11T06:37:36.791Z,-5.10
2023-03-11T06:40:07.556Z,-4.90
2023-03-11T06:42:37.540Z,-4.90
2023-03-11T06:45:05.945Z,-4.80
2023-03-11T06:47:36.304Z,-4.70
2023-03-11T06:50:07.487Z,-4.60
2023-03-11T06:52:35.659Z,-4.40
2023-03-11T06:55:04.253Z,-4.30
2023-03-11T06:57:32.587Z,-4.20
2023-03-11T07:00:02.179Z,-4.00
2023-03-11T07:02:30.380Z,-3.80
2023-03-11T07:04:58.673Z,-3.70
2023-03-11T07:07:27.031Z,-3.70
2023-03-11T07:09:56.300Z,-3.70
2023-03-11T07:12:25.583Z,-3.70
2023-03-11T07:14:55.828Z,-3.70
2023-03-11T07:17:25.584Z,-3.70
2023-03-11T07:19:54.119Z,-3.70
2023-03-11T07:22:22.631Z,-3.60
2023-03-11T07:24:51.239Z,-3.50
2023-03-11T07:27:22.051Z,-3.40
2023-03-11T07:29:50.259Z,-3.30
2023-03-11T07:32:19.036Z,-3.20
2023-03-11T07:34:48.663Z,-3.20
2023-03-11T07:37:17.006Z,-3.10
2023-03-11T07:39:45.340Z,-2.90
2023-03-11T07:42:13.464Z,-2.80
2023-03-11T07:44:41.894Z,-2.80
2023-03-11T07:47:10.090Z,-2.80
2023-03-11T07:49:38.263Z,-2.90
2023-03-11T07:52:08.122Z,-2.90
2023-03-11T07:54:36.439Z,-2.90
2023-03-11T07:57:05.127Z,-2.70
2023-03-11T07:59:33.267Z,-2.80
2023-03-11T08:02:02.874Z,-2.80
2023-03-11T08:04:31.671Z,-2.70
2023-03-11T08:06:59.850Z,-2.60
2023-03-11T08:09:29.579Z,-2.60
2023-03-11T08:11:57.713Z,-2.70
2023-03-11T08:14:25.958Z,-2.60
2023-03-11T08:16:54.171Z,-2.50
2023-03-11T08:19:22.281Z,-2.40
2023-03-11T08:21:50.549Z,-2.40
2023-03-11T08:24:18.675Z,-2.40
2023-03-11T08:26:48.306Z,-2.30
2023-03-11T08:29:16.447Z,-2.20
2023-03-11T08:31:53.551Z,-2.00
2023-03-11T08:34:22.592Z,-1.90
2023-03-11T08:36:50.885Z,-1.80
2023-03-11T08:39:19.265Z,-1.60
2023-03-11T08:41:48.988Z,-1.60
2023-03-11T08:44:17.141Z,-1.50
2023-03-11T08:46:45.596Z,-1.40
2023-03-11T08:49:13.856Z,-1.30
2023-03-11T08:51:43.859Z,-1.20
2023-03-11T08:54:12.109Z,-1.10
2023-03-11T08:56:40.221Z,-1.00
2023-03-11T08:59:09.812Z,-0.90
2023-03-11T09:01:38.224Z,-0.90
2023-03-11T09:04:08.920Z,-0.90
2023-03-11T09:06:37.144Z,-1.00
2023-03-11T09:09:05.472Z,-0.90
2023-03-11T09:11:33.640Z,-1.00
2023-03-11T09:14:01.999Z,-1.00
2023-03-11T09:16:31.798Z,-0.90
2023-03-11T09:19:03.682Z,-0.80
2023-03-11T09:21:31.875Z,-0.60
2023-03-11T09:24:00.191Z,-0.60
2023-03-11T09:26:28.377Z,-0.50
2023-03-11T09:28:56.639Z,-0.50
2023-03-11T09:31:25.750Z,-0.60
2023-03-11T09:33:56.455Z,-0.40
2023-03-11T09:36:24.753Z,-0.30
2023-03-11T09:38:52.949Z,-0.30
2023-03-11T09:41:28.646Z,-0.20
2023-03-11T09:44:02.336Z,-0.20
2023-03-11T09:46:52.235Z,-0.30
2023-03-11T09:49:24.686Z,-0.20
2023-03-11T09:51:55.433Z,0.00
2023-03-11T09:54:24.151Z,0.10
2023-03-11T09:56:52.525Z,0.10
2023-03-11T09:59:27.536Z,0.20
2023-03-11T10:01:55.789Z,0.30
2023-03-11T10:04:27.924Z,0.30
2023-03-11T10:06:57.539Z,0.50
2023-03-11T10:09:32.285Z,0.40
2023-03-11T10:12:08.067Z,0.20
2023-03-11T10:14:41.454Z,0.10
2023-03-11T10:17:13.922Z,0.20
2023-03-11T10:19:46.614Z,0.20
2023-03-11T10:22:17.216Z,0.30
2023-03-11T10:24:50.683Z,0.10
2023-03-11T10:27:21.661Z,0.20
2023-03-11T10:29:54.142Z,0.40
2023-03-11T10:32:25.564Z,0.40
2023-03-11T10:34:58.331Z,0.30
2023-03-11T10:37:36.028Z,0.30
2023-03-11T10:40:19.594Z,0.20
2023-03-11T10:42:50.515Z,0.40
2023-03-11T10:45:20.885Z,0.40
2023-03-11T10:47:49.032Z,0.40
2023-03-11T10:50:19.539Z,0.40
2023-03-11T10:53:05.824Z,0.60
2023-03-11T10:55:36.391Z,0.50
2023-03-11T10:58:08.737Z,0.50
2023-03-11T11:00:37.015Z,0.60
2023-03-11T11:03:06.874Z,0.50
2023-03-11T11:05:36.867Z,0.50
2023-03-11T11:08:06.965Z,0.50
2023-03-11T11:10:36.113Z,0.60
2023-03-11T11:13:17.759Z,0.50
2023-03-11T11:15:53.390Z,0.50
2023-03-11T11:18:23.235Z,0.50
2023-03-11T11:20:57.914Z,0.60
2023-03-11T11:23:27.734Z,0.50
2023-03-11T11:26:00.152Z,0.30
2023-03-11T11:28:28.724Z,0.60
2023-03-11T11:30:58.928Z,0.40
2023-03-11T11:33:28.988Z,0.60
2023-03-11T11:36:00.883Z,0.70
2023-03-11T11:38:30.516Z,0.70
2023-03-11T11:41:00.324Z,0.80
2023-03-11T11:43:36.566Z,0.80
2023-03-11T11:46:07.284Z,0.80
2023-03-11T11:48:38.440Z,0.70
2023-03-11T11:51:16.332Z,0.80
2023-03-11T11:53:48.107Z,0.70
2023-03-11T11:56:16.326Z,0.80
2023-03-11T11:58:44.491Z,1.00
2023-03-11T12:01:17.018Z,0.90
2023-03-11T12:04:05.765Z,0.80
2023-03-11T12:06:38.648Z,0.90
2023-03-11T12:09:14.889Z,0.90
2023-03-11T12:11:45.353Z,0.80
2023-03-11T12:14:16.419Z,1.00
2023-03-11T12:16:48.146Z,1.00
2023-03-11T12:19:19.480Z,1.30
2023-03-11T12:22:01.403Z,1.40
2023-03-11T12:24:49.664Z,1.20
2023-03-11T12:27:22.197Z,1.10
2023-03-11T12:29:52.891Z,1.00
2023-03-11T12:32:24.667Z,1.30
2023-03-11T12:34:53.600Z,1.10
2023-03-11T12:37:24.796Z,1.30
2023-03-11T12:39:52.987Z,1.00
2023-03-11T12:42:25.183Z,1.20
2023-03-11T12:44:54.033Z,0.80
2023-03-11T12:47:23.320Z,0.60
2023-03-11T12:49:54.960Z,0.80
2023-03-11T12:52:26.637Z,0.90
2023-03-11T12:55:13.402Z,0.60
2023-03-11T12:57:50.534Z,0.70
2023-03-11T13:00:30.241Z,0.90
2023-03-11T13:03:18.620Z,0.90
2023-03-11T13:05:55.020Z,1.00
2023-03-11T13:08:25.117Z,1.20
2023-03-11T13:10:53.927Z,0.80
2023-03-11T13:13:39.887Z,0.60
2023-03-11T13:16:26.443Z,0.60
2023-03-11T13:18:55.066Z,0.40
2023-03-11T13:21:38.103Z,0.50
2023-03-11T13:24:26.121Z,0.60
2023-03-11T13:26:58.619Z,0.70
2023-03-11T13:29:44.035Z,0.80
2023-03-11T13:32:21.305Z,0.60
2023-03-11T13:34:56.019Z,0.70
2023-03-11T13:37:28.188Z,0.60
2023-03-11T13:40:04.145Z,0.60
2023-03-11T13:42:36.516Z,0.70
2023-03-11T13:45:05.774Z,0.80
2023-03-11T13:47:34.915Z,0.60
2023-03-11T13:50:05.439Z,0.60
2023-03-11T13:52:34.426Z,0.50
2023-03-11T13:55:04.271Z,0.40
2023-03-11T13:57:34.303Z,0.30
2023-03-11T14:00:15.892Z,0.20
2023-03-11T14:02:46.706Z,0.30
2023-03-11T14:05:18.398Z,0.20
2023-03-11T14:07:47.190Z,0.30
2023-03-11T14:10:23.569Z,0.40
2023-03-11T14:12:55.953Z,0.40
2023-03-11T14:15:26.561Z,0.40
2023-03-11T14:17:55.714Z,0.30
2023-03-11T14:20:25.436Z,0.10
2023-03-11T14:22:55.167Z,0.20
2023-03-11T14:25:25.309Z,0.30
2023-03-11T14:27:56.108Z,0.30
2023-03-11T14:30:25.822Z,0.30
2023-03-11T14:32:58.244Z,0.20
2023-03-11T14:35:26.863Z,0.20
2023-03-11T14:37:55.242Z,0.00
2023-03-11T14:40:24.598Z,0.00
2023-03-11T14:42:54.233Z,0.00
2023-03-11T14:45:25.081Z,-0.10
2023-03-11T14:47:56.049Z,-0.10
2023-03-11T14:50:28.121Z,0.00
2023-03-11T14:52:58.719Z,0.00
2023-03-11T14:55:29.074Z,0.20
2023-03-11T14:57:58.956Z,0.20
2023-03-11T15:00:29.619Z,0.30
2023-03-11T15:03:01.230Z,0.30
2023-03-11T15:05:32.945Z,0.30
2023-03-11T15:08:05.223Z,0.20
2023-03-11T15:10:34.128Z,0.40
2023-03-11T15:13:07.432Z,0.50
2023-03-11T15:15:37.239Z,0.50
2023-03-11T15:18:18.675Z,0.50
2023-03-11T15:20:48.021Z,0.50
2023-03-11T15:23:22.244Z,0.50
2023-03-11T15:25:50.938Z,0.30
2023-03-11T15:28:25.663Z,0.30
2023-03-11T15:31:15.308Z,0.30
2023-03-11T15:33:43.965Z,0.30
2023-03-11T15:36:31.711Z,0.10
2023-03-11T15:39:14.785Z,0.10
2023-03-11T15:41:43.524Z,-0.10
2023-03-11T15:44:25.843Z,0.10
2023-03-11T15:46:55.481Z,0.00
2023-03-11T15:49:23.874Z,-0.10
2023-03-11T15:51:52.021Z,0.00
2023-03-11T15:54:20.143Z,-0.10
2023-03-11T15:56:48.451Z,-0.20
2023-03-11T15:59:17.659Z,-0.10
2023-03-11T16:01:47.270Z,-0.30
2023-03-11T16:04:18.115Z,-0.40
2023-03-11T16:06:56.524Z,-0.50
2023-03-11T16:09:33.226Z,-0.40
2023-03-11T16:12:02.481Z,-0.60
2023-03-11T16:14:30.802Z,-0.60
2023-03-11T16:16:58.936Z,-0.70
2023-03-11T16:19:28.607Z,-0.70
2023-03-11T16:21:56.864Z,-0.80
2023-03-11T16:24:25.624Z,-0.80
2023-03-11T16:26:54.106Z,-0.80
2023-03-11T16:29:24.160Z,-0.90
2023-03-11T16:31:52.459Z,-0.90
2023-03-11T16:34:20.609Z,-1.20
2023-03-11T16:36:50.202Z,-1.20
2023-03-11T16:39:18.575Z,-1.20
2023-03-11T16:41:46.723Z,-1.30
2023-03-11T16:44:14.874Z,-1.40
2023-03-11T16:46:43.208Z,-1.60
2023-03-11T16:49:11.377Z,-2.00
2023-03-11T16:51:39.587Z,-2.30
2023-03-11T16:54:09.316Z,-2.30
2023-03-11T16:56:41.729Z,-2.30
2023-03-11T16:59:10.185Z,-2.20
2023-03-11T17:01:39.189Z,-2.30
2023-03-11T17:04:07.887Z,-2.30
2023-03-11T17:06:36.236Z,-2.30
2023-03-11T17:09:04.740Z,-2.40
2023-03-11T17:11:34.744Z,-2.50
2023-03-11T17:14:15.622Z,-2.50
2023-03-11T17:16:44.951Z,-2.60
2023-03-11T17:19:13.412Z,-2.60
2023-03-11T17:21:41.631Z,-2.60
2023-03-11T17:24:10.066Z,-2.70
2023-03-11T17:26:40.022Z,-2.80
2023-03-11T17:29:08.452Z,-2.90
2023-03-11T17:31:36.769Z,-3.00
2023-03-11T17:34:04.946Z,-3.10
2023-03-11T17:36:35.327Z,-3.10
2023-03-11T17:39:03.708Z,-3.10
2023-03-11T17:41:31.935Z,-3.20
2023-03-11T17:44:01.431Z,-3.30
2023-03-11T17:46:29.765Z,-3.40
2023-03-11T17:48:57.991Z,-3.50
2023-03-11T17:51:27.085Z,-3.50
2023-03-11T17:53:55.706Z,-3.60
2023-03-11T17:56:24.123Z,-3.70
2023-03-11T17:58:52.414Z,-3.80
2023-03-11T18:01:23.362Z,-3.90
2023-03-11T18:03:51.941Z,-4.00
2023-03-11T18:06:21.007Z,-4.10
2023-03-11T18:08:49.523Z,-4.10
2023-03-11T18:11:19.177Z,-4.10
2023-03-11T18:13:47.699Z,-4.20
2023-03-11T18:16:16.610Z,-4.30
2023-03-11T18:18:46.535Z,-4.40
2023-03-11T18:21:16.168Z,-4.50
2023-03-11T18:23:47.604Z,-4.60
2023-03-11T18:26:16.968Z,-4.60
2023-03-11T18:28:45.442Z,-4.60
2023-03-11T18:31:14.564Z,-4.70
2023-03-11T18:33:42.874Z,-4.90
2023-03-11T18:36:16.763Z,-4.90
2023-03-11T18:38:45.580Z,-4.90
2023-03-11T18:41:13.807Z,-5.00
2023-03-11T18:43:42.368Z,-4.90
2023-03-11T18:46:11.331Z,-5.00
2023-03-11T18:48:39.768Z,-5.00
2023-03-11T18:51:09.058Z,-5.10
2023-03-11T18:53:39.013Z,-5.10
2023-03-11T18:56:10.161Z,-5.30
2023-03-11T18:58:38.448Z,-5.40
2023-03-11T19:01:07.178Z,-5.40
2023-03-11T19:03:35.686Z,-5.40
2023-03-11T19:06:03.827Z,-5.40
2023-03-11T19:08:32.057Z,-5.50
2023-03-11T19:11:01.812Z,-5.60
2023-03-11T19:13:45.620Z,-5.70
2023-03-11T19:16:14.999Z,-5.70
2023-03-11T19:18:43.325Z,-5.70
2023-03-11T19:21:12.250Z,-5.70
2023-03-11T19:23:40.675Z,-5.70
2023-03-11T19:26:10.926Z,-5.80
2023-03-11T19:28:39.212Z,-5.80
2023-03-11T19:31:07.448Z,-5.90
2023-03-11T19:33:37.072Z,-5.90
2023-03-11T19:36:06.451Z,-6.00
2023-03-11T19:38:34.882Z,-6.10
2023-03-11T19:41:04.319Z,-6.10
2023-03-11T19:43:35.649Z,-6.10
2023-03-11T19:46:04.357Z,-6.20
2023-03-11T19:48:32.935Z,-6.30
2023-03-11T19:51:02.436Z,-6.40
2023-03-11T19:53:30.592Z,-6.50
2023-03-11T19:55:59.464Z,-6.50
2023-03-11T19:58:30.557Z,-6.50
2023-03-11T20:01:00.841Z,-6.60
2023-03-11T20:03:29.529Z,-6.60
2023-03-11T20:05:59.764Z,-6.70
2023-03-11T20:08:30.461Z,-6.70
2023-03-11T20:11:01.824Z,-5.70
2023-03-11T20:13:30.124Z,-6.50
2023-03-11T20:16:06.415Z,-6.70
2023-03-11T20:18:34.546Z,-6.70
2023-03-11T20:21:05.430Z,-6.70
2023-03-11T20:23:33.912Z,-6.70
2023-03-11T20:26:05.652Z,-6.70
2023-03-11T20:28:33.768Z,-6.90
2023-03-11T20:31:09.388Z,-6.90
2023-03-11T20:33:38.221Z,-7.00
2023-03-11T20:36:06.983Z,-7.00
2023-03-11T20:38:35.235Z,-7.10
2023-03-11T20:41:05.959Z,-7.20
2023-03-11T20:43:34.278Z,-7.20
2023-03-11T20:46:02.694Z,-7.30
2023-03-11T20:48:32.423Z,-7.20
2023-03-11T20:51:01.262Z,-7.20
2023-03-11T20:53:30.659Z,-7.30
2023-03-11T20:55:58.956Z,-7.30
2023-03-11T20:58:27.420Z,-7.30
2023-03-11T21:00:57.774Z,-7.30
2023-03-11T21:03:26.147Z,-7.40
2023-03-11T21:05:55.778Z,-7.60
2023-03-11T21:08:24.041Z,-7.50
2023-03-11T21:10:52.231Z,-7.50
2023-03-11T21:13:20.394Z,-7.50
2023-03-11T21:15:48.947Z,-7.50
2023-03-11T21:18:17.392Z,-7.40
2023-03-11T21:20:47.526Z,-7.60
2023-03-11T21:23:17.264Z,-7.70
2023-03-11T21:25:46.282Z,-7.80
2023-03-11T21:28:14.974Z,-7.90
2023-03-11T21:30:44.428Z,-7.90
2023-03-11T21:33:13.766Z,-7.90
2023-03-11T21:35:42.003Z,-7.90
2023-03-11T21:38:10.397Z,-8.00
2023-03-11T21:40:42.913Z,-8.10
2023-03-11T21:43:11.285Z,-8.10
2023-03-11T21:45:39.514Z,-8.10
2023-03-11T21:48:09.072Z,-8.10
2023-03-11T21:50:37.493Z,-8.10
2023-03-11T21:53:05.720Z,-8.10
2023-03-11T21:55:34.296Z,-8.10
2023-03-11T21:58:03.979Z,-8.10
2023-03-11T22:00:32.340Z,-8.20
2023-03-11T22:03:00.792Z,-8.30
2023-03-11T22:05:29.050Z,-8.20
2023-03-11T22:07:57.370Z,-8.20
2023-03-11T22:10:25.621Z,-8.20
2023-03-11T22:12:54.036Z,-8.20
2023-03-11T22:15:23.776Z,-8.30
2023-03-11T22:17:51.904Z,-8.20
2023-03-11T22:20:20.283Z,-8.30
2023-03-11T22:22:48.795Z,-8.30
2023-03-11T22:25:17.221Z,-8.30
2023-03-11T22:27:45.395Z,-8.40
2023-03-11T22:30:13.775Z,-8.50
2023-03-11T22:32:43.516Z,-8.60
2023-03-11T22:35:12.971Z,-8.60
2023-03-11T22:37:41.071Z,-8.70
2023-03-11T22:40:10.291Z,-8.70
2023-03-11T22:42:38.875Z,-8.70
2023-03-11T22:45:07.813Z,-8.80
2023-03-11T22:47:36.001Z,-8.80
2023-03-11T22:50:05.926Z,-8.80
2023-03-11T22:52:34.131Z,-8.80
2023-03-11T22:55:02.421Z,-8.80
2023-03-11T22:57:31.216Z,-8.80
2023-03-11T22:59:59.323Z,-8.90
2023-03-11T23:02:28.002Z,-8.90
2023-03-11T23:04:56.219Z,-9.00
2023-03-11T23:07:25.934Z,-9.00
2023-03-11T23:09:58.278Z,-9.00
2023-03-11T23:12:26.461Z,-9.00
2023-03-11T23:14:54.549Z,-9.00
2023-03-11T23:17:23.056Z,-9.10
2023-03-11T23:19:51.212Z,-9.10
2023-03-11T23:22:19.385Z,-9.10
2023-03-11T23:24:49.079Z,-9.10
2023-03-11T23:27:17.472Z,-9.20
2023-03-11T23:29:47.942Z,-9.20
2023-03-11T23:32:16.314Z,-9.20
2023-03-11T23:34:46.254Z,-9.20
2023-03-11T23:37:14.801Z,-9.20
2023-03-11T23:39:42.937Z,-9.20
2023-03-11T23:42:24.875Z,-9.30
2023-03-11T23:44:54.316Z,-9.40
2023-03-11T23:47:22.649Z,-9.40
2023-03-11T23:49:50.763Z,-9.40
2023-03-11T23:52:19.077Z,-9.40
2023-03-11T23:54:47.356Z,-9.40
2023-03-11T23:57:16.937Z,-9.50
2023-03-11T23:59:45.207Z,-9.40
